createdAt,value
2022-10-19T00:35:03.854Z,93.92
2022-10-19T00:40:08.520Z,93.60
2022-10-19T00:45:15.824Z,93.46
2022-10-19T00:52:30.523Z,93.43
2022-10-19T00:59:11.208Z,93.18
2022-10-19T01:19:12.746Z,93.04
2022-10-19T01:24:37.114Z,93.41
2022-10-19T01:37:56.806Z,94.62
2022-10-19T01:56:06.382Z,94.80
2022-10-19T02:07:23.046Z,94.53
2022-10-19T02:12:26.039Z,94.47
2022-10-19T02:19:08.699Z,94.38
2022-10-19T02:33:30.275Z,94.14
2022-10-19T02:56:09.157Z,93.84
2022-10-19T03:01:13.018Z,93.39
2022-10-19T03:06:15.754Z,93.20
2022-10-19T03:13:29.264Z,93.07
2022-10-19T03:18:32.507Z,93.33
2022-10-19T03:23:35.464Z,93.30
2022-10-19T03:28:38.175Z,93.28
2022-10-19T03:33:40.929Z,93.37
2022-10-19T03:38:43.821Z,93.36
2022-10-19T03:43:46.696Z,93.24
2022-10-19T03:48:49.627Z,93.16
2022-10-19T03:54:01.878Z,93.35
2022-10-19T03:59:05.621Z,93.25
2022-10-19T04:04:15.755Z,93.18
2022-10-19T04:09:20.558Z,93.14
2022-10-19T04:14:32.084Z,92.84
2022-10-19T04:19:35.677Z,92.48
2022-10-19T04:24:38.428Z,92.40
2022-10-19T04:29:41.169Z,92.35
2022-10-19T04:34:43.854Z,92.02
2022-10-19T04:39:46.544Z,91.52
2022-10-19T04:44:49.218Z,91.32
2022-10-19T04:49:51.932Z,90.84
2022-10-19T04:54:54.597Z,90.60
2022-10-19T04:59:57.231Z,90.20
2022-10-19T05:04:59.890Z,89.95
2022-10-19T05:10:02.611Z,89.57
2022-10-19T05:15:05.839Z,89.71
2022-10-19T05:20:11.264Z,89.40
2022-10-19T05:25:13.967Z,89.05
2022-10-19T05:30:16.905Z,88.93
2022-10-19T05:35:22.634Z,88.25
2022-10-19T05:40:25.631Z,88.52
2022-10-19T05:45:28.258Z,88.11
2022-10-19T05:50:30.952Z,87.29
2022-10-19T05:55:35.845Z,86.43
2022-10-19T06:00:38.539Z,85.78
2022-10-19T06:05:41.263Z,85.70
2022-10-19T06:10:44.825Z,85.99
2022-10-19T06:15:50.923Z,86.08
2022-10-19T06:20:53.765Z,85.23
2022-10-19T06:25:56.554Z,84.80
2022-10-19T06:30:59.488Z,85.23
2022-10-19T06:36:14.274Z,85.34
2022-10-19T06:41:17.123Z,85.20
2022-10-19T06:46:23.190Z,84.83
2022-10-19T06:51:27.620Z,84.92
2022-10-19T06:56:31.401Z,85.44
2022-10-19T07:01:34.042Z,85.77
2022-10-19T07:06:36.732Z,85.69
2022-10-19T07:11:45.516Z,85.42
2022-10-19T07:16:50.367Z,85.40
2022-10-19T07:21:53.460Z,85.48
2022-10-19T07:26:56.201Z,85.42
2022-10-19T07:31:58.837Z,85.40
2022-10-19T07:37:01.769Z,84.81
2022-10-19T07:42:05.076Z,84.29
2022-10-19T07:47:07.771Z,83.56
2022-10-19T07:52:10.391Z,83.14
2022-10-19T07:57:13.221Z,81.83
2022-10-19T08:02:16.951Z,81.18
2022-10-19T08:07:19.769Z,80.94
2022-10-19T08:12:22.466Z,81.08
2022-10-19T08:17:25.198Z,81.13
2022-10-19T08:22:27.973Z,81.33
2022-10-19T08:27:30.693Z,81.29
2022-10-19T08:32:33.536Z,81.30
2022-10-19T08:37:50.826Z,82.88
2022-10-19T08:43:17.371Z,84.72
2022-10-19T08:48:36.386Z,86.08
2022-10-19T08:53:56.551Z,86.95
2022-10-19T08:59:26.784Z,87.48
2022-10-19T09:04:41.944Z,88.08
2022-10-19T09:09:50.611Z,88.69
2022-10-19T09:15:00.983Z,88.72
2022-10-19T09:20:14.987Z,88.25
2022-10-19T09:25:21.993Z,88.32
2022-10-19T09:30:24.666Z,88.11
2022-10-19T09:35:37.465Z,87.70
2022-10-19T09:40:40.245Z,87.32
2022-10-19T09:45:57.374Z,86.15
2022-10-19T09:51:03.452Z,85.30
2022-10-19T09:56:07.994Z,84.13
2022-10-19T10:01:10.749Z,82.85
2022-10-19T10:06:17.807Z,81.99
2022-10-19T10:11:25.085Z,81.05
2022-10-19T10:16:33.042Z,76.86
2022-10-19T10:21:54.597Z,78.57
2022-10-19T10:27:05.169Z,81.87
2022-10-19T10:32:08.152Z,83.69
2022-10-19T10:37:29.925Z,84.02
2022-10-19T10:42:35.626Z,84.30
2022-10-19T10:47:39.306Z,83.89
2022-10-19T10:52:42.054Z,83.62
2022-10-19T10:57:47.877Z,82.83
2022-10-19T11:03:25.506Z,81.69
2022-10-19T11:09:16.030Z,80.44
2022-10-19T11:14:57.384Z,79.29
2022-10-19T11:20:00.063Z,77.93
2022-10-19T11:25:14.610Z,76.13
2022-10-19T11:30:20.164Z,73.79
2022-10-19T11:35:53.019Z,71.89
2022-10-19T11:41:26.514Z,71.97
2022-10-19T11:47:06.779Z,71.12
2022-10-19T11:52:17.623Z,70.24
2022-10-19T11:57:26.459Z,69.96
2022-10-19T12:03:06.433Z,68.73
2022-10-19T12:08:57.844Z,66.96
2022-10-19T12:14:04.051Z,66.53
2022-10-19T12:19:06.855Z,67.19
2022-10-19T12:24:21.707Z,65.95
2022-10-19T12:29:32.038Z,63.14
2022-10-19T12:34:55.692Z,62.88
2022-10-19T12:40:09.386Z,64.28
2022-10-19T12:45:30.802Z,61.52
2022-10-19T12:50:49.306Z,59.85
2022-10-19T12:56:11.077Z,58.36
2022-10-19T13:01:21.040Z,59.01
2022-10-19T13:06:23.686Z,59.45
2022-10-19T13:11:26.497Z,58.33
2022-10-19T13:16:29.202Z,56.88
2022-10-19T13:22:24.609Z,56.75
2022-10-19T13:27:28.206Z,55.32
2022-10-19T13:32:37.917Z,55.19
2022-10-19T13:37:40.928Z,54.26
2022-10-19T13:42:43.722Z,55.12
2022-10-19T13:47:47.642Z,59.63
2022-10-19T13:53:25.427Z,61.48
2022-10-19T13:59:05.226Z,62.55
2022-10-19T14:04:33.949Z,63.44
2022-10-19T14:10:08.556Z,63.39
2022-10-19T14:15:34.874Z,63.58
2022-10-19T14:20:39.071Z,63.43
2022-10-19T14:25:41.771Z,63.01
2022-10-19T14:30:44.989Z,64.39
2022-10-19T14:35:50.072Z,65.97
2022-10-19T14:40:53.184Z,67.16
2022-10-19T14:46:07.785Z,66.17
2022-10-19T14:51:40.360Z,64.70
2022-10-19T14:56:50.949Z,64.22
2022-10-19T15:01:59.581Z,64.39
2022-10-19T15:07:03.840Z,65.47
2022-10-19T15:12:10.277Z,66.42
2022-10-19T15:17:30.920Z,67.07
2022-10-19T15:22:33.838Z,66.80
2022-10-19T15:27:46.099Z,65.47
2022-10-19T15:33:13.148Z,64.99
2022-10-19T15:38:28.776Z,65.04
2022-10-19T15:43:34.428Z,65.47
2022-10-19T15:48:52.334Z,65.36
2022-10-19T15:54:24.770Z,66.12
2022-10-19T15:59:30.587Z,66.34
2022-10-19T16:04:33.369Z,65.48
2022-10-19T16:09:36.112Z,65.88
2022-10-19T16:14:38.880Z,65.67
2022-10-19T16:19:50.920Z,65.68
2022-10-19T16:24:53.999Z,65.90
2022-10-19T16:29:56.864Z,65.35
2022-10-19T16:34:59.655Z,66.08
2022-10-19T16:40:02.624Z,66.34
2022-10-19T16:45:06.183Z,66.55
2022-10-19T16:50:10.810Z,67.03
2022-10-19T16:55:14.120Z,67.43
2022-10-19T17:00:16.921Z,67.39
2022-10-19T17:05:19.629Z,67.86
2022-10-19T17:10:23.864Z,68.52
2022-10-19T17:15:43.413Z,68.66
2022-10-19T17:20:46.982Z,69.60
2022-10-19T17:25:49.690Z,70.43
2022-10-19T17:30:52.921Z,70.69
2022-10-19T17:35:55.579Z,71.11
2022-10-19T17:41:03.324Z,70.95
2022-10-19T17:46:08.198Z,71.40
2022-10-19T17:51:14.139Z,71.39
2022-10-19T17:56:19.769Z,71.53
2022-10-19T18:01:22.950Z,71.78
2022-10-19T18:06:31.629Z,71.76
2022-10-19T18:11:43.799Z,71.99
2022-10-19T18:16:46.904Z,72.41
2022-10-19T18:21:49.778Z,72.56
2022-10-19T18:26:53.040Z,72.93
2022-10-19T18:31:56.621Z,73.26
2022-10-19T18:36:59.376Z,73.46
2022-10-19T18:42:02.100Z,73.91
2022-10-19T18:47:04.759Z,74.13
2022-10-19T18:52:07.417Z,73.86
2022-10-19T18:57:10.140Z,74.54
2022-10-19T19:02:22.351Z,74.78
2022-10-19T19:07:26.284Z,75.19
2022-10-19T19:12:31.127Z,75.34
2022-10-19T19:17:34.722Z,75.22
2022-10-19T19:22:37.735Z,76.00
2022-10-19T19:27:40.730Z,76.01
2022-10-19T19:32:43.558Z,76.71
2022-10-19T19:37:46.214Z,76.75
2022-10-19T19:42:48.953Z,77.14
2022-10-19T19:47:51.632Z,77.21
2022-10-19T19:52:54.254Z,77.40
2022-10-19T19:57:56.968Z,77.88
2022-10-19T20:03:00.248Z,77.76
2022-10-19T20:08:02.925Z,77.74
2022-10-19T20:13:05.540Z,77.80
2022-10-19T20:18:08.374Z,77.83
2022-10-19T20:23:11.205Z,78.29
2022-10-19T20:28:13.935Z,78.47
2022-10-19T20:33:17.089Z,78.61
2022-10-19T20:38:19.752Z,78.81
2022-10-19T20:43:22.403Z,79.53
2022-10-19T20:48:25.065Z,79.81
2022-10-19T20:53:27.685Z,79.81
2022-10-19T20:58:31.820Z,80.28
2022-10-19T21:03:34.652Z,81.10
2022-10-19T21:08:37.569Z,81.76
2022-10-19T21:13:40.327Z,81.97
2022-10-19T21:18:43.832Z,82.50
2022-10-19T21:23:48.028Z,82.79
2022-10-19T21:28:53.159Z,83.12
2022-10-19T21:33:55.826Z,83.49
2022-10-19T21:38:59.604Z,84.04
2022-10-19T21:44:02.308Z,83.50
2022-10-19T21:49:04.989Z,84.22
2022-10-19T21:54:13.256Z,84.19
2022-10-19T21:59:16.160Z,83.76
2022-10-19T22:04:18.911Z,84.09
2022-10-19T22:09:22.048Z,84.49
2022-10-19T22:14:24.665Z,84.35
2022-10-19T22:19:27.495Z,84.71
2022-10-19T22:24:30.305Z,85.15
2022-10-19T22:29:33.055Z,85.22
2022-10-19T22:34:36.989Z,85.45
2022-10-19T22:39:39.605Z,85.24
2022-10-19T22:44:42.226Z,85.18
2022-10-19T22:49:45.026Z,85.17
2022-10-19T22:54:48.198Z,85.31
2022-10-19T22:59:51.058Z,85.48
2022-10-19T23:04:53.724Z,85.27
2022-10-19T23:09:56.953Z,85.41
2022-10-19T23:15:00.974Z,85.81
2022-10-19T23:20:03.988Z,85.85
2022-10-19T23:25:07.517Z,86.38
2022-10-19T23:30:10.905Z,86.42
2022-10-19T23:35:13.758Z,86.55
2022-10-19T23:40:16.439Z,86.83
2022-10-19T23:45:19.392Z,86.77
2022-10-19T23:50:22.329Z,86.15
2022-10-19T23:55:25.140Z,86.11
